sensor_id;sensor_type;location;lat;lon;timestamp;P1;durP1;ratioP1;P2;durP2;ratioP2
56736;SDS011;42618;51.226;4.910;2023-05-29T00:00:40;8.20;;;4.20;;
56736;SDS011;42618;51.226;4.910;2023-05-29T00:03:08;10.05;;;5.05;;
56736;SDS011;42618;51.226;4.910;2023-05-29T00:05:36;15.88;;;4.78;;
56736;SDS011;42618;51.226;4.910;2023-05-29T00:08:03;13.05;;;4.68;;
56736;SDS011;42618;51.226;4.910;2023-05-29T00:10:29;11.80;;;4.75;;
56736;SDS011;42618;51.226;4.910;2023-05-29T00:12:57;11.38;;;4.80;;
56736;SDS011;42618;51.226;4.910;2023-05-29T00:15:24;14.03;;;5.30;;
56736;SDS011;42618;51.226;4.910;2023-05-29T00:17:51;12.68;;;4.38;;
56736;SDS011;42618;51.226;4.910;2023-05-29T00:20:19;12.50;;;5.15;;
56736;SDS011;42618;51.226;4.910;2023-05-29T00:22:46;13.93;;;5.00;;
56736;SDS011;42618;51.226;4.910;2023-05-29T00:25:14;11.27;;;4.55;;
56736;SDS011;42618;51.226;4.910;2023-05-29T00:27:41;10.70;;;4.65;;
56736;SDS011;42618;51.226;4.910;2023-05-29T00:30:08;10.15;;;4.82;;
56736;SDS011;42618;51.226;4.910;2023-05-29T00:32:35;11.60;;;4.53;;
56736;SDS011;42618;51.226;4.910;2023-05-29T00:35:02;11.00;;;5.05;;
56736;SDS011;42618;51.226;4.910;2023-05-29T00:37:29;9.18;;;4.60;;
56736;SDS011;42618;51.226;4.910;2023-05-29T00:39:56;9.90;;;4.78;;
56736;SDS011;42618;51.226;4.910;2023-05-29T00:42:23;8.98;;;4.15;;
56736;SDS011;42618;51.226;4.910;2023-05-29T00:44:49;12.40;;;5.03;;
56736;SDS011;42618;51.226;4.910;2023-05-29T00:47:17;13.13;;;4.60;;
56736;SDS011;42618;51.226;4.910;2023-05-29T00:49:43;13.40;;;4.20;;
56736;SDS011;42618;51.226;4.910;2023-05-29T00:52:11;14.27;;;4.75;;
56736;SDS011;42618;51.226;4.910;2023-05-29T00:54:38;17.58;;;4.68;;
56736;SDS011;42618;51.226;4.910;2023-05-29T00:57:05;9.10;;;4.37;;
56736;SDS011;42618;51.226;4.910;2023-05-29T00:59:32;11.45;;;4.60;;
56736;SDS011;42618;51.226;4.910;2023-05-29T01:02:00;10.88;;;4.43;;
56736;SDS011;42618;51.226;4.910;2023-05-29T01:04:29;11.30;;;4.22;;
56736;SDS011;42618;51.226;4.910;2023-05-29T01:06:56;11.40;;;4.25;;
56736;SDS011;42618;51.226;4.910;2023-05-29T01:09:23;9.00;;;3.90;;
56736;SDS011;42618;51.226;4.910;2023-05-29T01:15:11;10.18;;;3.53;;
56736;SDS011;42618;51.226;4.910;2023-05-29T01:20:54;8.13;;;3.10;;
56736;SDS011;42618;51.226;4.910;2023-05-29T01:29:14;10.75;;;2.63;;
56736;SDS011;42618;51.226;4.910;2023-05-29T01:31:44;13.32;;;3.28;;
56736;SDS011;42618;51.226;4.910;2023-05-29T01:34:12;10.93;;;2.50;;
56736;SDS011;42618;51.226;4.910;2023-05-29T01:36:42;10.95;;;2.40;;
56736;SDS011;42618;51.226;4.910;2023-05-29T01:39:09;8.07;;;2.35;;
56736;SDS011;42618;51.226;4.910;2023-05-29T01:41:36;12.13;;;2.00;;
56736;SDS011;42618;51.226;4.910;2023-05-29T01:44:06;13.15;;;2.10;;
56736;SDS011;42618;51.226;4.910;2023-05-29T01:46:38;10.80;;;2.13;;
56736;SDS011;42618;51.226;4.910;2023-05-29T01:49:09;6.85;;;1.58;;
56736;SDS011;42618;51.226;4.910;2023-05-29T01:51:40;9.05;;;1.65;;
56736;SDS011;42618;51.226;4.910;2023-05-29T01:54:07;10.02;;;1.90;;
56736;SDS011;42618;51.226;4.910;2023-05-29T01:56:34;8.05;;;1.80;;
56736;SDS011;42618;51.226;4.910;2023-05-29T01:59:03;12.65;;;1.77;;
56736;SDS011;42618;51.226;4.910;2023-05-29T02:01:31;9.07;;;1.83;;
56736;SDS011;42618;51.226;4.910;2023-05-29T02:03:58;13.18;;;1.92;;
56736;SDS011;42618;51.226;4.910;2023-05-29T02:06:25;10.50;;;1.75;;
56736;SDS011;42618;51.226;4.910;2023-05-29T02:08:52;8.15;;;1.73;;
56736;SDS011;42618;51.226;4.910;2023-05-29T02:11:19;13.27;;;2.10;;
56736;SDS011;42618;51.226;4.910;2023-05-29T02:13:46;8.85;;;1.75;;
56736;SDS011;42618;51.226;4.910;2023-05-29T02:16:13;9.37;;;1.93;;
56736;SDS011;42618;51.226;4.910;2023-05-29T02:18:40;10.60;;;1.83;;
56736;SDS011;42618;51.226;4.910;2023-05-29T02:21:07;11.10;;;1.87;;
56736;SDS011;42618;51.226;4.910;2023-05-29T02:23:34;13.90;;;2.17;;
56736;SDS011;42618;51.226;4.910;2023-05-29T02:26:01;10.23;;;1.38;;
56736;SDS011;42618;51.226;4.910;2023-05-29T02:28:28;8.63;;;1.50;;
56736;SDS011;42618;51.226;4.910;2023-05-29T02:30:55;15.90;;;2.13;;
56736;SDS011;42618;51.226;4.910;2023-05-29T02:33:22;11.98;;;1.52;;
56736;SDS011;42618;51.226;4.910;2023-05-29T02:35:49;10.90;;;1.80;;
56736;SDS011;42618;51.226;4.910;2023-05-29T02:38:16;8.02;;;1.63;;
56736;SDS011;42618;51.226;4.910;2023-05-29T02:40:43;19.25;;;2.33;;
56736;SDS011;42618;51.226;4.910;2023-05-29T02:43:12;11.10;;;1.50;;
56736;SDS011;42618;51.226;4.910;2023-05-29T02:45:39;12.13;;;2.25;;
56736;SDS011;42618;51.226;4.910;2023-05-29T02:48:06;7.97;;;1.67;;
56736;SDS011;42618;51.226;4.910;2023-05-29T02:50:33;10.45;;;1.98;;
56736;SDS011;42618;51.226;4.910;2023-05-29T02:53:00;11.07;;;2.17;;
56736;SDS011;42618;51.226;4.910;2023-05-29T02:55:26;13.02;;;1.70;;
56736;SDS011;42618;51.226;4.910;2023-05-29T02:57:53;4.65;;;1.17;;
56736;SDS011;42618;51.226;4.910;2023-05-29T03:00:21;11.82;;;1.33;;
56736;SDS011;42618;51.226;4.910;2023-05-29T03:02:48;11.90;;;2.10;;
56736;SDS011;42618;51.226;4.910;2023-05-29T03:05:17;10.35;;;1.40;;
56736;SDS011;42618;51.226;4.910;2023-05-29T03:07:44;11.23;;;1.60;;
56736;SDS011;42618;51.226;4.910;2023-05-29T03:10:11;13.47;;;1.80;;
56736;SDS011;42618;51.226;4.910;2023-05-29T03:12:37;9.88;;;1.65;;
56736;SDS011;42618;51.226;4.910;2023-05-29T03:17:32;13.43;;;1.80;;
56736;SDS011;42618;51.226;4.910;2023-05-29T03:19:59;13.45;;;1.67;;
56736;SDS011;42618;51.226;4.910;2023-05-29T03:22:26;10.30;;;1.87;;
56736;SDS011;42618;51.226;4.910;2023-05-29T03:24:53;8.30;;;1.52;;
56736;SDS011;42618;51.226;4.910;2023-05-29T03:27:20;13.40;;;1.83;;
56736;SDS011;42618;51.226;4.910;2023-05-29T03:29:56;7.43;;;1.30;;
56736;SDS011;42618;51.226;4.910;2023-05-29T03:32:24;8.52;;;1.42;;
56736;SDS011;42618;51.226;4.910;2023-05-29T03:34:51;12.35;;;1.55;;
56736;SDS011;42618;51.226;4.910;2023-05-29T03:37:18;10.80;;;1.57;;
56736;SDS011;42618;51.226;4.910;2023-05-29T03:39:46;15.15;;;2.03;;
56736;SDS011;42618;51.226;4.910;2023-05-29T03:42:13;10.75;;;1.42;;
56736;SDS011;42618;51.226;4.910;2023-05-29T03:44:41;9.57;;;1.20;;
56736;SDS011;42618;51.226;4.910;2023-05-29T03:47:10;11.80;;;1.48;;
56736;SDS011;42618;51.226;4.910;2023-05-29T03:49:37;12.80;;;1.57;;
56736;SDS011;42618;51.226;4.910;2023-05-29T03:52:04;11.70;;;1.52;;
56736;SDS011;42618;51.226;4.910;2023-05-29T03:54:32;13.88;;;1.80;;
56736;SDS011;42618;51.226;4.910;2023-05-29T03:57:01;14.05;;;1.45;;
56736;SDS011;42618;51.226;4.910;2023-05-29T03:59:28;13.75;;;1.70;;
56736;SDS011;42618;51.226;4.910;2023-05-29T04:01:54;12.02;;;1.90;;
56736;SDS011;42618;51.226;4.910;2023-05-29T04:04:21;10.85;;;1.40;;
56736;SDS011;42618;51.226;4.910;2023-05-29T04:06:49;18.60;;;1.42;;
56736;SDS011;42618;51.226;4.910;2023-05-29T04:09:17;12.45;;;1.23;;
56736;SDS011;42618;51.226;4.910;2023-05-29T04:11:44;12.82;;;1.70;;
56736;SDS011;42618;51.226;4.910;2023-05-29T04:14:12;16.85;;;1.38;;
56736;SDS011;42618;51.226;4.910;2023-05-29T04:16:39;13.93;;;1.88;;
56736;SDS011;42618;51.226;4.910;2023-05-29T04:19:06;11.43;;;1.70;;
56736;SDS011;42618;51.226;4.910;2023-05-29T04:21:33;13.65;;;1.80;;
56736;SDS011;42618;51.226;4.910;2023-05-29T04:24:01;13.68;;;1.92;;
56736;SDS011;42618;51.226;4.910;2023-05-29T04:26:28;14.70;;;2.37;;
56736;SDS011;42618;51.226;4.910;2023-05-29T04:28:55;9.95;;;1.50;;
56736;SDS011;42618;51.226;4.910;2023-05-29T04:31:25;13.45;;;1.35;;
56736;SDS011;42618;51.226;4.910;2023-05-29T04:33:53;9.80;;;1.75;;
56736;SDS011;42618;51.226;4.910;2023-05-29T04:36:24;10.80;;;1.70;;
56736;SDS011;42618;51.226;4.910;2023-05-29T04:39:02;21.15;;;5.90;;
56736;SDS011;42618;51.226;4.910;2023-05-29T04:41:30;12.25;;;1.58;;
56736;SDS011;42618;51.226;4.910;2023-05-29T04:43:59;15.48;;;2.90;;
56736;SDS011;42618;51.226;4.910;2023-05-29T04:46:33;13.25;;;2.10;;
56736;SDS011;42618;51.226;4.910;2023-05-29T04:49:02;13.18;;;1.83;;
56736;SDS011;42618;51.226;4.910;2023-05-29T04:51:29;15.05;;;1.80;;
56736;SDS011;42618;51.226;4.910;2023-05-29T04:53:56;10.33;;;2.10;;
56736;SDS011;42618;51.226;4.910;2023-05-29T04:56:23;16.20;;;1.60;;
56736;SDS011;42618;51.226;4.910;2023-05-29T04:58:50;10.05;;;1.90;;
56736;SDS011;42618;51.226;4.910;2023-05-29T05:01:17;12.68;;;1.38;;
56736;SDS011;42618;51.226;4.910;2023-05-29T05:03:44;13.10;;;1.73;;
56736;SDS011;42618;51.226;4.910;2023-05-29T05:06:12;17.92;;;1.95;;
56736;SDS011;42618;51.226;4.910;2023-05-29T05:08:39;12.18;;;1.75;;
56736;SDS011;42618;51.226;4.910;2023-05-29T05:11:06;11.32;;;1.85;;
56736;SDS011;42618;51.226;4.910;2023-05-29T05:13:33;17.03;;;1.87;;
56736;SDS011;42618;51.226;4.910;2023-05-29T05:16:00;19.15;;;4.45;;
56736;SDS011;42618;51.226;4.910;2023-05-29T05:18:29;12.50;;;1.58;;
56736;SDS011;42618;51.226;4.910;2023-05-29T05:21:04;16.15;;;2.25;;
56736;SDS011;42618;51.226;4.910;2023-05-29T05:23:34;14.32;;;1.52;;
56736;SDS011;42618;51.226;4.910;2023-05-29T05:26:21;10.87;;;1.40;;
56736;SDS011;42618;51.226;4.910;2023-05-29T05:28:48;15.68;;;2.17;;
56736;SDS011;42618;51.226;4.910;2023-05-29T05:31:16;9.73;;;1.50;;
56736;SDS011;42618;51.226;4.910;2023-05-29T05:33:42;14.25;;;1.85;;
56736;SDS011;42618;51.226;4.910;2023-05-29T05:36:09;12.88;;;1.83;;
56736;SDS011;42618;51.226;4.910;2023-05-29T05:38:38;10.00;;;1.55;;
56736;SDS011;42618;51.226;4.910;2023-05-29T05:41:05;10.60;;;1.77;;
56736;SDS011;42618;51.226;4.910;2023-05-29T05:43:32;10.85;;;1.40;;
56736;SDS011;42618;51.226;4.910;2023-05-29T05:46:06;11.68;;;1.50;;
56736;SDS011;42618;51.226;4.910;2023-05-29T05:48:35;10.98;;;1.83;;
56736;SDS011;42618;51.226;4.910;2023-05-29T05:51:02;14.57;;;2.60;;
56736;SDS011;42618;51.226;4.910;2023-05-29T05:55:56;10.48;;;1.80;;
56736;SDS011;42618;51.226;4.910;2023-05-29T05:58:24;7.43;;;1.25;;
56736;SDS011;42618;51.226;4.910;2023-05-29T06:00:51;14.07;;;1.98;;
56736;SDS011;42618;51.226;4.910;2023-05-29T06:03:19;10.65;;;1.50;;
56736;SDS011;42618;51.226;4.910;2023-05-29T06:05:58;13.23;;;1.65;;
56736;SDS011;42618;51.226;4.910;2023-05-29T06:08:25;14.82;;;3.60;;
56736;SDS011;42618;51.226;4.910;2023-05-29T06:10:52;16.23;;;2.42;;
56736;SDS011;42618;51.226;4.910;2023-05-29T06:13:19;10.98;;;1.58;;
56736;SDS011;42618;51.226;4.910;2023-05-29T06:15:52;14.45;;;2.85;;
56736;SDS011;42618;51.226;4.910;2023-05-29T06:18:20;10.88;;;1.75;;
56736;SDS011;42618;51.226;4.910;2023-05-29T06:20:47;13.60;;;2.22;;
56736;SDS011;42618;51.226;4.910;2023-05-29T06:23:14;6.70;;;1.50;;
56736;SDS011;42618;51.226;4.910;2023-05-29T06:25:41;12.27;;;1.30;;
56736;SDS011;42618;51.226;4.910;2023-05-29T06:28:08;14.48;;;1.45;;
56736;SDS011;42618;51.226;4.910;2023-05-29T06:30:34;13.52;;;1.45;;
56736;SDS011;42618;51.226;4.910;2023-05-29T06:33:05;7.28;;;1.60;;
56736;SDS011;42618;51.226;4.910;2023-05-29T06:35:34;17.23;;;1.67;;
56736;SDS011;42618;51.226;4.910;2023-05-29T06:38:01;15.43;;;1.70;;
56736;SDS011;42618;51.226;4.910;2023-05-29T06:40:28;10.30;;;1.40;;
56736;SDS011;42618;51.226;4.910;2023-05-29T06:42:54;9.15;;;1.13;;
56736;SDS011;42618;51.226;4.910;2023-05-29T06:45:35;8.07;;;1.50;;
56736;SDS011;42618;51.226;4.910;2023-05-29T06:48:02;12.27;;;1.50;;
56736;SDS011;42618;51.226;4.910;2023-05-29T06:50:29;13.60;;;1.47;;
56736;SDS011;42618;51.226;4.910;2023-05-29T06:53:03;10.65;;;1.40;;
56736;SDS011;42618;51.226;4.910;2023-05-29T06:55:56;10.70;;;1.20;;
56736;SDS011;42618;51.226;4.910;2023-05-29T06:58:23;7.30;;;1.77;;
56736;SDS011;42618;51.226;4.910;2023-05-29T07:00:50;9.98;;;1.45;;
56736;SDS011;42618;51.226;4.910;2023-05-29T07:03:27;10.27;;;1.10;;
56736;SDS011;42618;51.226;4.910;2023-05-29T07:05:54;8.55;;;1.33;;
56736;SDS011;42618;51.226;4.910;2023-05-29T07:08:22;12.90;;;1.50;;
56736;SDS011;42618;51.226;4.910;2023-05-29T07:10:50;13.23;;;1.73;;
56736;SDS011;42618;51.226;4.910;2023-05-29T07:13:19;9.27;;;1.27;;
56736;SDS011;42618;51.226;4.910;2023-05-29T07:15:47;8.82;;;1.25;;
56736;SDS011;42618;51.226;4.910;2023-05-29T07:18:16;13.40;;;1.83;;
56736;SDS011;42618;51.226;4.910;2023-05-29T07:20:43;10.18;;;1.58;;
56736;SDS011;42618;51.226;4.910;2023-05-29T07:23:13;9.73;;;1.40;;
56736;SDS011;42618;51.226;4.910;2023-05-29T07:25:40;9.77;;;1.67;;
56736;SDS011;42618;51.226;4.910;2023-05-29T07:28:08;8.75;;;2.00;;
56736;SDS011;42618;51.226;4.910;2023-05-29T07:30:48;10.90;;;1.42;;
56736;SDS011;42618;51.226;4.910;2023-05-29T07:33:15;18.60;;;4.47;;
56736;SDS011;42618;51.226;4.910;2023-05-29T07:38:10;14.77;;;2.13;;
56736;SDS011;42618;51.226;4.910;2023-05-29T07:40:38;9.27;;;1.50;;
56736;SDS011;42618;51.226;4.910;2023-05-29T07:43:18;11.07;;;1.48;;
56736;SDS011;42618;51.226;4.910;2023-05-29T07:45:50;15.95;;;1.58;;
56736;SDS011;42618;51.226;4.910;2023-05-29T07:48:19;9.98;;;1.30;;
56736;SDS011;42618;51.226;4.910;2023-05-29T07:50:49;9.57;;;1.55;;
56736;SDS011;42618;51.226;4.910;2023-05-29T07:53:16;11.90;;;1.67;;
56736;SDS011;42618;51.226;4.910;2023-05-29T07:55:45;9.77;;;1.40;;
56736;SDS011;42618;51.226;4.910;2023-05-29T07:58:12;13.38;;;2.05;;
56736;SDS011;42618;51.226;4.910;2023-05-29T08:00:40;13.70;;;1.45;;
56736;SDS011;42618;51.226;4.910;2023-05-29T08:03:07;16.70;;;2.15;;
56736;SDS011;42618;51.226;4.910;2023-05-29T08:05:58;12.43;;;1.48;;
56736;SDS011;42618;51.226;4.910;2023-05-29T08:08:26;8.85;;;1.17;;
56736;SDS011;42618;51.226;4.910;2023-05-29T08:10:53;10.60;;;1.52;;
56736;SDS011;42618;51.226;4.910;2023-05-29T08:13:20;11.97;;;1.50;;
56736;SDS011;42618;51.226;4.910;2023-05-29T08:15:47;9.32;;;1.45;;
56736;SDS011;42618;51.226;4.910;2023-05-29T08:18:14;9.23;;;1.08;;
56736;SDS011;42618;51.226;4.910;2023-05-29T08:20:40;14.02;;;2.08;;
56736;SDS011;42618;51.226;4.910;2023-05-29T08:23:09;11.07;;;1.42;;
56736;SDS011;42618;51.226;4.910;2023-05-29T08:25:36;12.43;;;1.47;;
56736;SDS011;42618;51.226;4.910;2023-05-29T08:28:03;14.18;;;1.50;;
56736;SDS011;42618;51.226;4.910;2023-05-29T08:30:30;10.50;;;1.20;;
56736;SDS011;42618;51.226;4.910;2023-05-29T08:32:57;13.10;;;1.40;;
56736;SDS011;42618;51.226;4.910;2023-05-29T08:35:24;9.90;;;1.33;;
56736;SDS011;42618;51.226;4.910;2023-05-29T08:37:51;19.08;;;1.88;;
56736;SDS011;42618;51.226;4.910;2023-05-29T08:40:17;7.50;;;1.30;;
56736;SDS011;42618;51.226;4.910;2023-05-29T08:42:50;7.90;;;1.27;;
56736;SDS011;42618;51.226;4.910;2023-05-29T08:45:24;19.00;;;2.08;;
56736;SDS011;42618;51.226;4.910;2023-05-29T08:47:52;8.68;;;1.15;;
56736;SDS011;42618;51.226;4.910;2023-05-29T08:50:20;10.70;;;1.92;;
56736;SDS011;42618;51.226;4.910;2023-05-29T08:52:48;9.40;;;0.98;;
56736;SDS011;42618;51.226;4.910;2023-05-29T08:55:14;8.35;;;1.02;;
56736;SDS011;42618;51.226;4.910;2023-05-29T08:57:41;12.98;;;1.20;;
56736;SDS011;42618;51.226;4.910;2023-05-29T09:00:10;7.55;;;1.30;;
56736;SDS011;42618;51.226;4.910;2023-05-29T09:02:41;12.20;;;1.60;;
56736;SDS011;42618;51.226;4.910;2023-05-29T09:05:12;7.75;;;1.27;;
56736;SDS011;42618;51.226;4.910;2023-05-29T09:07:39;5.45;;;1.23;;
56736;SDS011;42618;51.226;4.910;2023-05-29T09:10:10;6.45;;;1.20;;
56736;SDS011;42618;51.226;4.910;2023-05-29T09:12:37;8.73;;;1.30;;
56736;SDS011;42618;51.226;4.910;2023-05-29T09:15:07;7.38;;;1.15;;
56736;SDS011;42618;51.226;4.910;2023-05-29T09:17:44;7.32;;;0.98;;
56736;SDS011;42618;51.226;4.910;2023-05-29T09:20:16;7.25;;;1.20;;
56736;SDS011;42618;51.226;4.910;2023-05-29T09:22:57;8.00;;;1.27;;
56736;SDS011;42618;51.226;4.910;2023-05-29T09:25:29;10.80;;;1.88;;
56736;SDS011;42618;51.226;4.910;2023-05-29T09:27:59;9.80;;;0.98;;
56736;SDS011;42618;51.226;4.910;2023-05-29T09:30:32;8.40;;;1.45;;
56736;SDS011;42618;51.226;4.910;2023-05-29T09:33:05;5.68;;;1.20;;
56736;SDS011;42618;51.226;4.910;2023-05-29T09:35:34;6.38;;;0.90;;
56736;SDS011;42618;51.226;4.910;2023-05-29T09:38:04;2.70;;;0.80;;
56736;SDS011;42618;51.226;4.910;2023-05-29T09:40:32;8.90;;;1.20;;
56736;SDS011;42618;51.226;4.910;2023-05-29T09:43:03;13.32;;;1.60;;
56736;SDS011;42618;51.226;4.910;2023-05-29T09:45:38;12.32;;;1.10;;
56736;SDS011;42618;51.226;4.910;2023-05-29T09:48:18;8.93;;;1.23;;
56736;SDS011;42618;51.226;4.910;2023-05-29T09:50:49;6.00;;;1.17;;
56736;SDS011;42618;51.226;4.910;2023-05-29T09:55:48;7.80;;;1.10;;
56736;SDS011;42618;51.226;4.910;2023-05-29T09:58:17;10.45;;;1.17;;
56736;SDS011;42618;51.226;4.910;2023-05-29T10:00:45;9.52;;;1.25;;
56736;SDS011;42618;51.226;4.910;2023-05-29T10:03:14;13.18;;;3.05;;
56736;SDS011;42618;51.226;4.910;2023-05-29T10:05:42;11.45;;;1.67;;
56736;SDS011;42618;51.226;4.910;2023-05-29T10:08:15;8.23;;;1.13;;
56736;SDS011;42618;51.226;4.910;2023-05-29T10:11:03;5.35;;;0.90;;
56736;SDS011;42618;51.226;4.910;2023-05-29T10:13:32;11.85;;;1.25;;
56736;SDS011;42618;51.226;4.910;2023-05-29T10:16:03;6.70;;;1.38;;
56736;SDS011;42618;51.226;4.910;2023-05-29T10:18:38;8.43;;;1.10;;
56736;SDS011;42618;51.226;4.910;2023-05-29T10:21:06;8.32;;;1.30;;
56736;SDS011;42618;51.226;4.910;2023-05-29T10:23:34;4.22;;;1.27;;
56736;SDS011;42618;51.226;4.910;2023-05-29T10:26:12;9.18;;;1.20;;
56736;SDS011;42618;51.226;4.910;2023-05-29T10:31:21;6.38;;;1.20;;
56736;SDS011;42618;51.226;4.910;2023-05-29T10:37:23;4.45;;;1.05;;
56736;SDS011;42618;51.226;4.910;2023-05-29T10:40:01;6.88;;;1.00;;
56736;SDS011;42618;51.226;4.910;2023-05-29T10:53:17;6.90;;;1.08;;
56736;SDS011;42618;51.226;4.910;2023-05-29T10:55:49;6.45;;;1.30;;
56736;SDS011;42618;51.226;4.910;2023-05-29T11:00:51;9.02;;;1.27;;
56736;SDS011;42618;51.226;4.910;2023-05-29T11:03:30;7.65;;;1.33;;
56736;SDS011;42618;51.226;4.910;2023-05-29T11:11:01;8.20;;;1.33;;
56736;SDS011;42618;51.226;4.910;2023-05-29T11:13:35;11.45;;;2.45;;
56736;SDS011;42618;51.226;4.910;2023-05-29T11:21:34;5.45;;;1.30;;
56736;SDS011;42618;51.226;4.910;2023-05-29T11:24:14;9.00;;;1.20;;
56736;SDS011;42618;51.226;4.910;2023-05-29T11:26:51;8.73;;;2.25;;
56736;SDS011;42618;51.226;4.910;2023-05-29T11:29:27;9.40;;;1.08;;
56736;SDS011;42618;51.226;4.910;2023-05-29T11:31:58;5.90;;;0.80;;
56736;SDS011;42618;51.226;4.910;2023-05-29T11:34:28;6.88;;;1.10;;
56736;SDS011;42618;51.226;4.910;2023-05-29T11:36:59;7.65;;;1.05;;
56736;SDS011;42618;51.226;4.910;2023-05-29T11:39:27;10.55;;;1.63;;
56736;SDS011;42618;51.226;4.910;2023-05-29T11:41:54;9.70;;;1.45;;
56736;SDS011;42618;51.226;4.910;2023-05-29T11:44:24;9.23;;;1.52;;
56736;SDS011;42618;51.226;4.910;2023-05-29T11:46:59;7.75;;;1.23;;
56736;SDS011;42618;51.226;4.910;2023-05-29T11:49:36;5.50;;;1.30;;
56736;SDS011;42618;51.226;4.910;2023-05-29T11:52:10;7.00;;;1.77;;
56736;SDS011;42618;51.226;4.910;2023-05-29T11:54:43;6.75;;;1.17;;
56736;SDS011;42618;51.226;4.910;2023-05-29T11:57:20;5.22;;;1.20;;
56736;SDS011;42618;51.226;4.910;2023-05-29T11:59:51;9.20;;;1.50;;
56736;SDS011;42618;51.226;4.910;2023-05-29T12:02:24;7.55;;;1.38;;
56736;SDS011;42618;51.226;4.910;2023-05-29T12:05:04;10.90;;;1.60;;
56736;SDS011;42618;51.226;4.910;2023-05-29T12:07:34;6.10;;;1.33;;
56736;SDS011;42618;51.226;4.910;2023-05-29T12:10:14;4.30;;;1.00;;
56736;SDS011;42618;51.226;4.910;2023-05-29T12:12:46;6.78;;;1.50;;
56736;SDS011;42618;51.226;4.910;2023-05-29T12:15:15;6.82;;;1.67;;
56736;SDS011;42618;51.226;4.910;2023-05-29T12:17:44;10.65;;;1.42;;
56736;SDS011;42618;51.226;4.910;2023-05-29T12:20:12;11.95;;;1.40;;
56736;SDS011;42618;51.226;4.910;2023-05-29T12:22:41;8.40;;;1.40;;
56736;SDS011;42618;51.226;4.910;2023-05-29T12:25:09;3.60;;;1.30;;
56736;SDS011;42618;51.226;4.910;2023-05-29T12:27:39;7.82;;;1.67;;
56736;SDS011;42618;51.226;4.910;2023-05-29T12:32:58;8.05;;;1.40;;
56736;SDS011;42618;51.226;4.910;2023-05-29T12:35:27;7.20;;;1.17;;
56736;SDS011;42618;51.226;4.910;2023-05-29T12:40:29;8.48;;;1.50;;
56736;SDS011;42618;51.226;4.910;2023-05-29T12:42:58;7.25;;;1.13;;
56736;SDS011;42618;51.226;4.910;2023-05-29T12:45:27;5.53;;;1.20;;
56736;SDS011;42618;51.226;4.910;2023-05-29T12:50:27;6.22;;;1.10;;
56736;SDS011;42618;51.226;4.910;2023-05-29T12:53:00;6.10;;;1.45;;
56736;SDS011;42618;51.226;4.910;2023-05-29T12:55:28;5.85;;;1.10;;
56736;SDS011;42618;51.226;4.910;2023-05-29T12:57:57;8.10;;;1.75;;
56736;SDS011;42618;51.226;4.910;2023-05-29T13:00:24;7.50;;;1.38;;
56736;SDS011;42618;51.226;4.910;2023-05-29T13:02:51;27.08;;;2.15;;
56736;SDS011;42618;51.226;4.910;2023-05-29T13:05:18;27.45;;;2.20;;
56736;SDS011;42618;51.226;4.910;2023-05-29T13:07:49;9.43;;;1.40;;
56736;SDS011;42618;51.226;4.910;2023-05-29T13:10:20;4.97;;;1.33;;
56736;SDS011;42618;51.226;4.910;2023-05-29T13:12:48;4.63;;;1.23;;
56736;SDS011;42618;51.226;4.910;2023-05-29T13:15:20;6.72;;;1.10;;
56736;SDS011;42618;51.226;4.910;2023-05-29T13:17:49;7.50;;;1.48;;
56736;SDS011;42618;51.226;4.910;2023-05-29T13:22:44;8.13;;;1.27;;
56736;SDS011;42618;51.226;4.910;2023-05-29T13:25:13;8.45;;;1.55;;
56736;SDS011;42618;51.226;4.910;2023-05-29T13:27:42;4.47;;;1.20;;
56736;SDS011;42618;51.226;4.910;2023-05-29T13:30:11;4.43;;;1.30;;
56736;SDS011;42618;51.226;4.910;2023-05-29T13:32:39;11.20;;;1.60;;
56736;SDS011;42618;51.226;4.910;2023-05-29T13:35:07;7.88;;;1.30;;
56736;SDS011;42618;51.226;4.910;2023-05-29T13:37:35;5.38;;;1.30;;
56736;SDS011;42618;51.226;4.910;2023-05-29T13:40:03;7.53;;;1.23;;
56736;SDS011;42618;51.226;4.910;2023-05-29T13:42:36;8.95;;;1.33;;
56736;SDS011;42618;51.226;4.910;2023-05-29T13:45:05;8.48;;;1.48;;
56736;SDS011;42618;51.226;4.910;2023-05-29T13:47:33;7.30;;;1.50;;
56736;SDS011;42618;51.226;4.910;2023-05-29T13:52:27;6.73;;;1.17;;
56736;SDS011;42618;51.226;4.910;2023-05-29T13:54:54;5.40;;;1.23;;
56736;SDS011;42618;51.226;4.910;2023-05-29T13:57:21;5.73;;;1.33;;
56736;SDS011;42618;51.226;4.910;2023-05-29T13:59:48;7.97;;;1.20;;
56736;SDS011;42618;51.226;4.910;2023-05-29T14:02:14;6.60;;;1.27;;
56736;SDS011;42618;51.226;4.910;2023-05-29T14:04:42;11.23;;;1.60;;
56736;SDS011;42618;51.226;4.910;2023-05-29T14:07:09;7.05;;;1.10;;
56736;SDS011;42618;51.226;4.910;2023-05-29T14:09:36;7.70;;;1.43;;
56736;SDS011;42618;51.226;4.910;2023-05-29T14:12:03;7.17;;;1.27;;
56736;SDS011;42618;51.226;4.910;2023-05-29T14:14:30;6.45;;;1.38;;
56736;SDS011;42618;51.226;4.910;2023-05-29T14:16:57;7.72;;;1.23;;
56736;SDS011;42618;51.226;4.910;2023-05-29T14:19:24;6.15;;;1.58;;
56736;SDS011;42618;51.226;4.910;2023-05-29T14:21:50;9.10;;;1.20;;
56736;SDS011;42618;51.226;4.910;2023-05-29T14:24:18;6.50;;;1.15;;
56736;SDS011;42618;51.226;4.910;2023-05-29T14:26:45;8.32;;;1.27;;
56736;SDS011;42618;51.226;4.910;2023-05-29T14:29:14;6.78;;;1.73;;
56736;SDS011;42618;51.226;4.910;2023-05-29T14:31:41;11.60;;;1.38;;
56736;SDS011;42618;51.226;4.910;2023-05-29T14:34:11;7.93;;;1.33;;
56736;SDS011;42618;51.226;4.910;2023-05-29T14:36:38;7.53;;;1.08;;
56736;SDS011;42618;51.226;4.910;2023-05-29T14:39:06;10.73;;;1.50;;
56736;SDS011;42618;51.226;4.910;2023-05-29T14:41:33;11.67;;;1.37;;
56736;SDS011;42618;51.226;4.910;2023-05-29T14:44:01;6.95;;;1.20;;
56736;SDS011;42618;51.226;4.910;2023-05-29T14:46:28;7.57;;;1.50;;
56736;SDS011;42618;51.226;4.910;2023-05-29T14:49:01;10.40;;;1.38;;
56736;SDS011;42618;51.226;4.910;2023-05-29T14:51:28;7.35;;;1.13;;
56736;SDS011;42618;51.226;4.910;2023-05-29T14:53:55;6.80;;;1.40;;
56736;SDS011;42618;51.226;4.910;2023-05-29T14:56:22;7.53;;;1.23;;
56736;SDS011;42618;51.226;4.910;2023-05-29T14:58:48;8.40;;;1.20;;
56736;SDS011;42618;51.226;4.910;2023-05-29T15:01:16;8.02;;;1.35;;
56736;SDS011;42618;51.226;4.910;2023-05-29T15:03:44;7.45;;;1.70;;
56736;SDS011;42618;51.226;4.910;2023-05-29T15:06:12;9.88;;;1.58;;
56736;SDS011;42618;51.226;4.910;2023-05-29T15:11:06;4.70;;;1.55;;
56736;SDS011;42618;51.226;4.910;2023-05-29T15:16:00;9.20;;;1.40;;
56736;SDS011;42618;51.226;4.910;2023-05-29T15:18:29;4.72;;;1.20;;
56736;SDS011;42618;51.226;4.910;2023-05-29T15:20:56;6.32;;;1.20;;
56736;SDS011;42618;51.226;4.910;2023-05-29T15:23:24;7.57;;;1.10;;
56736;SDS011;42618;51.226;4.910;2023-05-29T15:25:52;9.32;;;1.15;;
56736;SDS011;42618;51.226;4.910;2023-05-29T15:28:19;7.13;;;1.27;;
56736;SDS011;42618;51.226;4.910;2023-05-29T15:30:46;4.75;;;1.30;;
56736;SDS011;42618;51.226;4.910;2023-05-29T15:33:13;8.02;;;1.30;;
56736;SDS011;42618;51.226;4.910;2023-05-29T15:35:40;9.65;;;1.45;;
56736;SDS011;42618;51.226;4.910;2023-05-29T15:38:09;6.32;;;1.30;;
56736;SDS011;42618;51.226;4.910;2023-05-29T15:40:36;12.65;;;1.73;;
56736;SDS011;42618;51.226;4.910;2023-05-29T15:43:03;5.30;;;1.48;;
56736;SDS011;42618;51.226;4.910;2023-05-29T15:45:30;5.22;;;1.40;;
56736;SDS011;42618;51.226;4.910;2023-05-29T15:47:57;8.60;;;1.60;;
56736;SDS011;42618;51.226;4.910;2023-05-29T15:50:24;6.38;;;1.42;;
56736;SDS011;42618;51.226;4.910;2023-05-29T15:52:51;4.75;;;1.20;;
56736;SDS011;42618;51.226;4.910;2023-05-29T15:55:21;6.82;;;1.70;;
56736;SDS011;42618;51.226;4.910;2023-05-29T15:57:50;8.68;;;1.55;;
56736;SDS011;42618;51.226;4.910;2023-05-29T16:00:17;6.95;;;1.63;;